createdAt,value
2019-02-18T00:01:08.920Z,7.77
2019-02-18T00:03:39.234Z,7.75
2019-02-18T00:06:09.455Z,7.69
2019-02-18T00:08:40.034Z,7.65
2019-02-18T00:11:15.098Z,7.60
2019-02-18T00:13:45.777Z,7.57
2019-02-18T00:16:16.474Z,7.56
2019-02-18T00:18:46.828Z,7.51
2019-02-18T00:21:17.296Z,7.50
2019-02-18T00:23:48.071Z,7.49
2019-02-18T00:26:18.449Z,7.47
2019-02-18T00:28:48.923Z,7.51
2019-02-18T00:31:20.328Z,7.53
2019-02-18T00:33:51.004Z,7.49
2019-02-18T00:36:21.464Z,7.49
2019-02-18T00:38:53.827Z,7.48
2019-02-18T00:41:24.600Z,7.46
2019-02-18T00:43:54.924Z,7.48
2019-02-18T00:46:25.300Z,7.47
2019-02-18T00:48:55.679Z,7.48
2019-02-18T00:51:27.093Z,7.49
2019-02-18T00:53:57.789Z,7.46
2019-02-18T00:56:28.146Z,7.44
2019-02-18T00:58:59.024Z,7.41
2019-02-18T01:01:29.454Z,7.39
2019-02-18T01:03:59.795Z,7.39
2019-02-18T01:06:30.168Z,7.37
2019-02-18T01:09:00.530Z,7.38
2019-02-18T01:11:30.847Z,7.39
2019-02-18T01:14:01.247Z,7.39
2019-02-18T01:16:31.623Z,7.44
2019-02-18T01:19:02.002Z,7.47
2019-02-18T01:21:32.625Z,7.51
2019-02-18T01:24:03.319Z,7.51
2019-02-18T01:26:33.722Z,7.53
2019-02-18T01:29:06.408Z,7.48
2019-02-18T01:31:36.745Z,7.50
2019-02-18T01:34:07.116Z,7.45
2019-02-18T01:36:37.589Z,7.43
2019-02-18T01:39:07.899Z,7.45
2019-02-18T01:41:38.496Z,7.42
2019-02-18T01:44:08.844Z,7.45
2019-02-18T01:46:40.389Z,7.44
2019-02-18T01:49:10.735Z,7.43
2019-02-18T01:51:41.062Z,7.43
2019-02-18T01:54:11.530Z,7.43
2019-02-18T01:56:42.839Z,7.41
2019-02-18T01:59:13.529Z,7.41
2019-02-18T02:01:44.003Z,7.40
2019-02-18T02:04:14.281Z,7.41
2019-02-18T02:06:44.704Z,7.43
2019-02-18T02:09:16.354Z,7.44
2019-02-18T02:11:46.679Z,7.42
2019-02-18T02:14:17.232Z,7.41
2019-02-18T02:16:47.493Z,7.40
2019-02-18T02:19:17.718Z,7.40
2019-02-18T02:21:48.123Z,7.38
2019-02-18T02:24:18.758Z,7.36
2019-02-18T02:26:49.026Z,7.35
2019-02-18T02:29:19.390Z,7.35
2019-02-18T02:31:49.749Z,7.31
2019-02-18T02:34:20.302Z,7.30
2019-02-18T02:36:57.116Z,7.29
2019-02-18T02:39:33.358Z,7.26
2019-02-18T02:42:03.612Z,7.28
2019-02-18T02:44:33.927Z,7.29
2019-02-18T02:47:04.196Z,7.29
2019-02-18T02:49:36.662Z,7.26
2019-02-18T02:52:06.945Z,7.23
2019-02-18T02:54:37.329Z,7.13
2019-02-18T02:57:13.137Z,7.03
2019-02-18T02:59:43.448Z,7.02
2019-02-18T03:02:13.834Z,7.01
2019-02-18T03:04:44.207Z,7.02
2019-02-18T03:07:18.341Z,6.94
2019-02-18T03:09:48.692Z,6.95
2019-02-18T03:12:19.215Z,7.01
2019-02-18T03:14:49.498Z,7.00
2019-02-18T03:17:20.045Z,7.05
2019-02-18T03:19:50.347Z,7.06
2019-02-18T03:22:20.698Z,7.00
2019-02-18T03:25:31.751Z,6.85
2019-02-18T03:28:55.586Z,6.74
2019-02-18T03:31:27.884Z,6.79
2019-02-18T03:34:08.354Z,6.76
2019-02-18T03:36:38.951Z,6.82
2019-02-18T03:39:09.501Z,6.80
2019-02-18T03:41:40.997Z,6.83
2019-02-18T03:44:11.357Z,6.87
2019-02-18T03:46:44.650Z,6.88
2019-02-18T03:49:14.950Z,6.84
2019-02-18T03:51:45.563Z,6.80
2019-02-18T03:54:16.545Z,6.79
2019-02-18T03:56:47.049Z,6.79
2019-02-18T03:59:19.402Z,6.77
2019-02-18T04:01:50.209Z,6.78
2019-02-18T04:04:20.679Z,6.74
2019-02-18T04:06:50.918Z,6.69
2019-02-18T04:09:21.396Z,6.62
2019-02-18T04:11:51.737Z,6.58
2019-02-18T04:14:22.639Z,6.58
2019-02-18T04:16:53.010Z,6.54
2019-02-18T04:19:23.286Z,6.60
2019-02-18T04:21:53.581Z,6.48
2019-02-18T04:24:23.984Z,6.47
2019-02-18T04:26:54.648Z,6.51
2019-02-18T04:29:25.528Z,6.57
2019-02-18T04:31:56.390Z,6.46
2019-02-18T04:34:26.697Z,6.53
2019-02-18T04:36:58.277Z,6.48
2019-02-18T04:39:28.588Z,6.48
2019-02-18T04:41:58.937Z,6.38
2019-02-18T04:44:30.499Z,6.38
2019-02-18T04:47:00.877Z,6.25
2019-02-18T04:49:31.186Z,6.20
2019-02-18T04:52:01.459Z,6.17
2019-02-18T04:54:31.895Z,6.25
2019-02-18T04:57:03.436Z,6.26
2019-02-18T04:59:33.847Z,6.30
2019-02-18T05:02:04.235Z,6.31
2019-02-18T05:04:34.610Z,6.36
2019-02-18T05:07:05.958Z,6.36
2019-02-18T05:09:36.413Z,6.35
2019-02-18T05:12:06.770Z,6.39
2019-02-18T05:14:37.264Z,6.39
2019-02-18T05:17:08.698Z,6.36
2019-02-18T05:19:39.074Z,6.33
2019-02-18T05:22:09.606Z,6.15
2019-02-18T05:24:40.342Z,6.06
2019-02-18T05:27:10.760Z,6.05
2019-02-18T05:29:43.138Z,6.15
2019-02-18T05:32:14.143Z,6.21
2019-02-18T05:34:44.506Z,6.24
2019-02-18T05:37:15.340Z,6.22
2019-02-18T05:39:45.788Z,6.21
2019-02-18T05:42:16.109Z,6.23
2019-02-18T05:44:46.410Z,6.25
2019-02-18T05:47:16.943Z,6.23
2019-02-18T05:49:47.267Z,6.22
2019-02-18T05:52:17.572Z,6.21
2019-02-18T05:54:48.071Z,6.18
2019-02-18T05:57:18.444Z,6.20
2019-02-18T05:59:49.114Z,6.25
2019-02-18T06:02:21.518Z,6.23
2019-02-18T06:04:51.876Z,6.16
2019-02-18T06:07:22.246Z,6.20
2019-02-18T06:09:52.771Z,6.15
2019-02-18T06:12:23.183Z,6.24
2019-02-18T06:14:53.423Z,6.16
2019-02-18T06:17:23.819Z,6.19
2019-02-18T06:19:54.224Z,6.14
2019-02-18T06:22:24.497Z,6.06
2019-02-18T06:24:55.224Z,6.08
2019-02-18T06:27:25.749Z,6.05
2019-02-18T06:29:58.103Z,6.14
2019-02-18T06:32:28.549Z,6.13
2019-02-18T06:34:59.303Z,6.14
2019-02-18T06:37:29.960Z,6.16
2019-02-18T06:40:00.395Z,6.15
2019-02-18T06:42:30.999Z,6.13
2019-02-18T06:45:35.311Z,6.13
2019-02-18T06:48:13.729Z,6.11
2019-02-18T06:50:44.189Z,6.11
2019-02-18T06:53:15.901Z,6.08
2019-02-18T06:55:47.322Z,6.12
2019-02-18T06:58:34.947Z,6.09
2019-02-18T07:01:31.078Z,6.09
2019-02-18T07:04:23.530Z,6.03
2019-02-18T07:07:02.602Z,6.04
2019-02-18T07:10:05.773Z,6.04
2019-02-18T07:12:39.830Z,6.08
2019-02-18T07:15:12.697Z,6.07
2019-02-18T07:17:43.284Z,6.13
2019-02-18T07:20:14.630Z,6.06
2019-02-18T07:22:46.117Z,6.17
2019-02-18T07:25:18.418Z,6.30
2019-02-18T07:27:49.353Z,6.34
2019-02-18T07:30:19.784Z,6.42
2019-02-18T07:32:50.483Z,6.44
2019-02-18T07:35:24.363Z,6.46
2019-02-18T07:38:03.628Z,6.45
2019-02-18T07:40:34.046Z,6.55
2019-02-18T07:43:04.354Z,6.57
2019-02-18T07:45:34.749Z,6.62
2019-02-18T07:48:05.095Z,6.64
2019-02-18T07:50:35.588Z,6.61
2019-02-18T07:53:06.080Z,6.58
2019-02-18T07:55:36.429Z,6.72
2019-02-18T07:58:07.229Z,6.82
2019-02-18T08:00:37.552Z,6.78
2019-02-18T08:03:07.951Z,6.76
2019-02-18T08:05:38.296Z,6.99
2019-02-18T08:08:08.888Z,7.07
2019-02-18T08:10:39.290Z,7.23
2019-02-18T08:13:09.742Z,7.26
2019-02-18T08:15:40.445Z,7.35
2019-02-18T08:18:10.805Z,7.38
2019-02-18T08:20:41.165Z,7.48
2019-02-18T08:23:11.906Z,7.58
2019-02-18T08:25:42.184Z,7.41
2019-02-18T08:28:12.472Z,7.34
2019-02-18T08:30:42.798Z,7.59
2019-02-18T08:33:13.116Z,7.82
2019-02-18T08:35:43.525Z,7.94
2019-02-18T08:38:13.905Z,8.00
2019-02-18T08:40:44.509Z,8.08
2019-02-18T08:43:14.814Z,8.06
2019-02-18T08:45:45.253Z,8.31
2019-02-18T08:48:15.953Z,8.86
2019-02-18T08:50:46.967Z,9.50
2019-02-18T08:53:17.832Z,9.99
2019-02-18T08:55:48.098Z,10.59
2019-02-18T08:58:18.623Z,11.26
2019-02-18T09:00:49.388Z,11.74
2019-02-18T09:03:19.808Z,12.21
2019-02-18T09:05:50.434Z,12.84
2019-02-18T09:08:21.314Z,13.17
2019-02-18T09:10:51.557Z,13.63
2019-02-18T09:13:22.026Z,14.51
2019-02-18T09:15:59.817Z,14.51
2019-02-18T09:18:24.585Z,14.85
2019-02-18T09:20:55.050Z,15.31
2019-02-18T09:23:47.999Z,15.87
2019-02-18T09:26:18.312Z,16.07
2019-02-18T09:28:48.946Z,16.43
2019-02-18T09:31:24.491Z,16.96
2019-02-18T09:33:54.878Z,17.40
2019-02-18T09:36:25.198Z,17.68
2019-02-18T09:38:55.824Z,17.88
2019-02-18T09:41:26.151Z,17.23
2019-02-18T09:43:56.677Z,17.08
2019-02-18T09:46:27.271Z,17.04
2019-02-18T09:48:57.698Z,16.94
2019-02-18T09:51:28.150Z,17.41
2019-02-18T09:53:58.454Z,17.41
2019-02-18T09:56:29.522Z,17.58
2019-02-18T09:58:59.893Z,17.21
2019-02-18T10:01:30.518Z,17.65
2019-02-18T10:04:00.924Z,17.89
2019-02-18T10:06:31.278Z,18.23
2019-02-18T10:09:02.039Z,18.97
2019-02-18T10:11:32.416Z,19.59
2019-02-18T10:14:02.806Z,20.26
2019-02-18T10:16:33.221Z,20.98
2019-02-18T10:19:04.635Z,20.42
2019-02-18T10:21:35.090Z,20.26
2019-02-18T10:24:05.733Z,20.18
2019-02-18T10:26:37.123Z,20.06
2019-02-18T10:29:07.448Z,20.25
2019-02-18T10:31:37.796Z,20.29
2019-02-18T10:34:08.202Z,19.75
2019-02-18T10:36:38.488Z,20.19
2019-02-18T10:39:09.572Z,20.13
2019-02-18T10:41:40.911Z,20.31
2019-02-18T10:44:11.588Z,20.12
2019-02-18T10:46:42.241Z,19.80
2019-02-18T10:49:19.888Z,20.09
2019-02-18T10:51:44.579Z,20.06
2019-02-18T10:54:14.961Z,19.79
2019-02-18T10:56:47.352Z,19.97
2019-02-18T10:59:17.612Z,20.08
2019-02-18T11:01:48.141Z,19.68
2019-02-18T11:04:18.947Z,20.45
2019-02-18T11:06:49.555Z,20.97
2019-02-18T11:09:20.114Z,21.12
2019-02-18T11:11:50.420Z,21.16
2019-02-18T11:14:20.717Z,21.16
2019-02-18T11:16:50.992Z,21.01
2019-02-18T11:19:21.419Z,20.37
2019-02-18T11:21:51.735Z,20.16
2019-02-18T11:24:22.025Z,19.86
2019-02-18T11:26:52.573Z,19.97
2019-02-18T11:29:23.430Z,19.67
2019-02-18T11:31:53.858Z,19.91
2019-02-18T11:34:24.338Z,19.62
2019-02-18T11:36:54.784Z,19.65
2019-02-18T11:39:25.330Z,19.80
2019-02-18T11:41:56.190Z,20.10
2019-02-18T11:44:26.721Z,20.15
2019-02-18T11:46:57.304Z,20.05
2019-02-18T11:49:27.849Z,19.51
2019-02-18T11:52:00.054Z,18.86
2019-02-18T11:54:31.595Z,18.42
2019-02-18T11:57:01.834Z,18.12
2019-02-18T11:59:32.437Z,17.28
2019-02-18T12:02:02.836Z,16.72
2019-02-18T12:04:33.135Z,16.08
2019-02-18T12:07:03.408Z,15.52
2019-02-18T12:09:34.788Z,15.31
2019-02-18T12:12:05.189Z,15.12
2019-02-18T12:14:35.527Z,14.87
2019-02-18T12:17:06.343Z,14.82
2019-02-18T12:19:38.408Z,14.85
2019-02-18T12:22:08.663Z,14.89
2019-02-18T12:24:39.584Z,14.97
2019-02-18T12:27:10.757Z,14.98
2019-02-18T12:29:41.096Z,14.98
2019-02-18T12:32:11.844Z,14.99
2019-02-18T12:34:43.600Z,14.98
2019-02-18T12:37:13.913Z,15.04
2019-02-18T12:39:44.442Z,14.84
2019-02-18T12:42:14.775Z,14.88
2019-02-18T12:44:45.457Z,14.95
2019-02-18T12:47:18.415Z,15.08
2019-02-18T12:49:51.166Z,15.19
2019-02-18T12:52:21.562Z,15.15
2019-02-18T12:54:52.093Z,15.21
2019-02-18T12:57:22.565Z,15.21
2019-02-18T12:59:53.034Z,15.28
2019-02-18T13:02:23.752Z,15.11
2019-02-18T13:04:54.143Z,15.20
2019-02-18T13:07:24.406Z,15.22
2019-02-18T13:09:55.413Z,15.13
2019-02-18T13:12:25.655Z,15.08
2019-02-18T13:14:55.935Z,14.92
2019-02-18T13:17:26.587Z,14.89
2019-02-18T13:19:57.213Z,14.96
2019-02-18T13:22:27.543Z,15.08
2019-02-18T13:24:57.951Z,15.10
2019-02-18T13:27:28.205Z,15.10
2019-02-18T13:29:58.587Z,14.99
2019-02-18T13:32:29.011Z,15.09
2019-02-18T13:34:59.500Z,15.13
2019-02-18T13:37:30.187Z,15.12
2019-02-18T13:40:00.915Z,15.13
2019-02-18T13:42:31.215Z,15.13
2019-02-18T13:45:01.905Z,14.92
2019-02-18T13:47:32.274Z,15.05
2019-02-18T13:50:02.760Z,15.13
2019-02-18T13:52:33.335Z,14.95
2019-02-18T13:55:04.353Z,15.01
2019-02-18T13:57:35.289Z,15.00
2019-02-18T14:00:07.715Z,15.00
2019-02-18T14:02:39.166Z,15.09
2019-02-18T14:05:09.510Z,15.15
2019-02-18T14:07:39.840Z,15.18
2019-02-18T14:10:10.345Z,15.24
2019-02-18T14:12:41.318Z,15.22
2019-02-18T14:15:11.866Z,15.21
2019-02-18T14:17:42.397Z,15.25
2019-02-18T14:20:14.126Z,15.24
2019-02-18T14:22:47.984Z,15.26
2019-02-18T14:25:19.155Z,15.03
2019-02-18T14:27:49.588Z,15.06
2019-02-18T14:30:19.940Z,15.05
2019-02-18T14:32:50.345Z,15.11
2019-02-18T14:35:20.688Z,15.14
2019-02-18T14:37:51.736Z,15.14
2019-02-18T14:40:22.400Z,15.11
2019-02-18T14:43:02.681Z,15.13
2019-02-18T14:45:34.278Z,15.14
2019-02-18T14:48:05.135Z,15.14
2019-02-18T14:50:35.865Z,15.16
2019-02-18T14:53:06.817Z,15.15
2019-02-18T14:55:37.215Z,15.15
2019-02-18T14:58:08.063Z,15.11
2019-02-18T15:00:41.548Z,15.07
2019-02-18T15:03:12.388Z,15.07
2019-02-18T15:05:43.075Z,15.03
2019-02-18T15:08:13.924Z,15.01
2019-02-18T15:10:44.396Z,15.03
2019-02-18T15:13:15.326Z,15.09
2019-02-18T15:15:46.039Z,15.07
2019-02-18T15:18:17.405Z,15.06
2019-02-18T15:20:48.050Z,14.96
2019-02-18T15:23:19.701Z,14.93
2019-02-18T15:25:50.017Z,14.91
2019-02-18T15:28:20.711Z,14.88
2019-02-18T15:30:51.161Z,14.83
2019-02-18T15:33:21.609Z,14.85
2019-02-18T15:35:58.128Z,14.77
2019-02-18T15:38:28.475Z,14.76
2019-02-18T15:40:59.097Z,14.72
2019-02-18T15:43:29.531Z,14.72
2019-02-18T15:45:59.888Z,14.75
2019-02-18T15:48:30.178Z,14.75
2019-02-18T15:51:00.835Z,14.68
2019-02-18T15:53:31.528Z,14.65
2019-02-18T15:56:01.969Z,14.59
2019-02-18T15:58:32.565Z,14.53
2019-02-18T16:01:11.473Z,14.50
2019-02-18T16:03:42.351Z,14.45
2019-02-18T16:06:12.921Z,14.37
2019-02-18T16:08:43.569Z,14.33
2019-02-18T16:11:13.962Z,14.32
2019-02-18T16:13:50.178Z,14.27
2019-02-18T16:16:20.481Z,14.19
2019-02-18T16:18:51.026Z,14.14
2019-02-18T16:21:21.218Z,14.10
2019-02-18T16:23:51.723Z,14.08
2019-02-18T16:26:22.478Z,14.08
2019-02-18T16:28:54.519Z,14.04
2019-02-18T16:31:24.989Z,13.95
2019-02-18T16:33:55.295Z,13.92
2019-02-18T16:36:26.754Z,13.89
2019-02-18T16:38:57.507Z,13.80
2019-02-18T16:41:27.791Z,13.78
2019-02-18T16:43:58.391Z,13.75
2019-02-18T16:46:29.450Z,13.63
2019-02-18T16:49:00.495Z,13.58
2019-02-18T16:51:30.919Z,13.51
2019-02-18T16:54:01.518Z,13.41
2019-02-18T16:56:33.141Z,13.41
2019-02-18T16:59:03.892Z,13.23
2019-02-18T17:01:34.275Z,13.23
2019-02-18T17:04:04.745Z,13.24
2019-02-18T17:06:35.103Z,13.18
2019-02-18T17:09:11.330Z,13.07
2019-02-18T17:11:42.246Z,13.07
2019-02-18T17:14:12.941Z,13.06
2019-02-18T17:16:44.906Z,13.06
2019-02-18T17:19:20.419Z,12.96
2019-02-18T17:21:51.159Z,12.96
2019-02-18T17:24:22.323Z,12.93
2019-02-18T17:26:52.896Z,12.87
2019-02-18T17:29:23.399Z,12.78
2019-02-18T17:31:54.063Z,12.73
2019-02-18T17:34:24.886Z,12.70
2019-02-18T17:36:55.272Z,12.68
2019-02-18T17:39:25.522Z,12.62
2019-02-18T17:41:55.981Z,12.56
2019-02-18T17:44:26.386Z,12.52
2019-02-18T17:46:57.074Z,12.44
2019-02-18T17:49:27.683Z,12.38
2019-02-18T17:51:59.662Z,12.32
2019-02-18T17:54:30.104Z,12.25
2019-02-18T17:57:00.764Z,12.23
2019-02-18T17:59:31.304Z,12.15
2019-02-18T18:02:02.042Z,12.12
2019-02-18T18:04:34.591Z,12.10
2019-02-18T18:07:05.142Z,12.04
2019-02-18T18:09:36.732Z,11.95
2019-02-18T18:12:07.872Z,11.93
2019-02-18T18:14:38.237Z,11.91
2019-02-18T18:17:10.665Z,11.91
2019-02-18T18:19:40.987Z,11.90
2019-02-18T18:22:11.910Z,11.85
2019-02-18T18:24:42.265Z,11.82
2019-02-18T18:27:13.584Z,11.75
2019-02-18T18:29:43.874Z,11.73
2019-02-18T18:32:14.090Z,11.72
2019-02-18T18:34:45.739Z,11.69
2019-02-18T18:37:16.206Z,11.67
2019-02-18T18:39:46.530Z,11.63
2019-02-18T18:42:17.036Z,11.60
2019-02-18T18:44:48.102Z,11.53
2019-02-18T18:47:18.394Z,11.50
2019-02-18T18:49:48.759Z,11.42
2019-02-18T18:52:20.006Z,11.46
2019-02-18T18:54:50.235Z,11.38
2019-02-18T18:57:21.517Z,11.42
2019-02-18T18:59:52.101Z,11.38
2019-02-18T19:02:22.344Z,11.36
2019-02-18T19:04:52.891Z,11.22
2019-02-18T19:07:23.492Z,11.16
2019-02-18T19:09:54.280Z,11.19
2019-02-18T19:12:24.782Z,11.18
2019-02-18T19:14:56.258Z,11.18
2019-02-18T19:17:26.869Z,11.17
2019-02-18T19:19:58.235Z,11.15
2019-02-18T19:22:29.907Z,11.13
2019-02-18T19:25:02.366Z,11.13
2019-02-18T19:27:32.760Z,11.16
2019-02-18T19:30:03.257Z,11.17
2019-02-18T19:32:33.967Z,11.10
2019-02-18T19:35:05.215Z,11.10
2019-02-18T19:37:35.602Z,11.07
2019-02-18T19:40:09.979Z,11.03
2019-02-18T19:42:41.080Z,10.98
2019-02-18T19:45:14.089Z,10.93
2019-02-18T19:47:44.698Z,10.84
2019-02-18T19:50:15.096Z,10.80
2019-02-18T19:52:46.680Z,10.82
2019-02-18T19:55:16.970Z,10.80
2019-02-18T19:57:47.385Z,10.77
2019-02-18T20:00:18.320Z,10.69
2019-02-18T20:02:48.722Z,10.66
2019-02-18T20:05:18.997Z,10.50
2019-02-18T20:07:50.331Z,10.47
2019-02-18T20:10:20.708Z,10.39
2019-02-18T20:12:50.922Z,10.41
2019-02-18T20:15:21.246Z,10.39
2019-02-18T20:17:53.677Z,10.33
2019-02-18T20:20:24.310Z,10.33
2019-02-18T20:22:54.568Z,10.30
2019-02-18T20:25:24.933Z,10.28
2019-02-18T20:27:55.727Z,10.24
2019-02-18T20:30:26.027Z,10.17
2019-02-18T20:32:56.403Z,10.12
2019-02-18T20:35:26.761Z,10.11
2019-02-18T20:37:57.081Z,10.03
2019-02-18T20:40:27.693Z,9.96
2019-02-18T20:42:57.973Z,9.94
2019-02-18T20:45:28.356Z,9.90
2019-02-18T20:47:59.050Z,9.86
2019-02-18T20:50:29.288Z,9.86
2019-02-18T20:52:59.845Z,9.82
2019-02-18T20:55:30.216Z,9.82
2019-02-18T20:58:00.543Z,9.78
2019-02-18T21:00:30.932Z,9.79
2019-02-18T21:03:01.323Z,9.79
2019-02-18T21:05:31.602Z,9.80
2019-02-18T21:08:05.426Z,9.74
2019-02-18T21:10:36.007Z,9.71
2019-02-18T21:13:15.140Z,9.72
2019-02-18T21:15:45.958Z,9.66
2019-02-18T21:18:16.471Z,9.60
2019-02-18T21:20:46.999Z,9.60
2019-02-18T21:23:24.009Z,9.60
2019-02-18T21:25:55.016Z,9.57
2019-02-18T21:28:26.426Z,9.58
2019-02-18T21:30:56.997Z,9.58
2019-02-18T21:33:27.334Z,9.60
2019-02-18T21:35:58.960Z,9.60
2019-02-18T21:38:30.930Z,9.61
2019-02-18T21:41:02.850Z,9.60
2019-02-18T21:43:33.171Z,9.57
2019-02-18T21:46:03.449Z,9.54
2019-02-18T21:48:33.761Z,9.52
2019-02-18T21:51:04.078Z,9.50
2019-02-18T21:53:35.598Z,9.51
2019-02-18T21:56:06.160Z,9.51
2019-02-18T21:58:36.443Z,9.51
2019-02-18T22:01:07.020Z,9.50
2019-02-18T22:03:37.674Z,9.46
2019-02-18T22:06:08.046Z,9.42
2019-02-18T22:08:38.467Z,9.38
2019-02-18T22:11:08.827Z,9.37
2019-02-18T22:13:39.093Z,9.35
2019-02-18T22:16:09.327Z,9.28
2019-02-18T22:18:40.664Z,9.18
2019-02-18T22:21:10.974Z,9.11
2019-02-18T22:23:41.776Z,9.11
2019-02-18T22:26:12.125Z,9.18
2019-02-18T22:28:44.989Z,9.15
2019-02-18T22:31:15.291Z,9.06
2019-02-18T22:33:45.744Z,9.03
2019-02-18T22:36:17.037Z,9.03
2019-02-18T22:38:47.539Z,9.04
2019-02-18T22:41:18.142Z,9.05
2019-02-18T22:43:48.626Z,9.08
2019-02-18T22:46:19.435Z,9.17
2019-02-18T22:48:49.802Z,9.19
2019-02-18T22:51:20.434Z,9.22
2019-02-18T22:53:50.664Z,9.28
2019-02-18T22:56:21.096Z,9.22
2019-02-18T22:58:51.608Z,9.15
2019-02-18T23:01:23.313Z,9.17
2019-02-18T23:03:53.593Z,9.14
2019-02-18T23:06:24.406Z,9.14
2019-02-18T23:08:55.152Z,9.16
2019-02-18T23:11:25.632Z,9.11
2019-02-18T23:13:56.641Z,9.05
2019-02-18T23:16:27.253Z,9.03
2019-02-18T23:18:58.511Z,9.02
2019-02-18T23:21:29.439Z,9.01
2019-02-18T23:23:59.848Z,9.07
2019-02-18T23:26:30.958Z,9.10
2019-02-18T23:29:01.292Z,9.09
2019-02-18T23:31:31.844Z,9.12
2019-02-18T23:34:02.771Z,9.12
2019-02-18T23:36:33.115Z,9.12
2019-02-18T23:39:03.849Z,9.09
2019-02-18T23:41:34.117Z,9.02
2019-02-18T23:44:04.535Z,9.00
2019-02-18T23:46:34.749Z,8.92
2019-02-18T23:49:05.094Z,8.81
2019-02-18T23:51:35.746Z,8.73
2019-02-18T23:54:06.195Z,8.71
2019-02-18T23:56:36.477Z,8.68
2019-02-18T23:59:06.825Z,8.64
